Thompson Airport
CYTH : now visible

Airfield :











YOU CAN JOIN US ON...

 
LOGIN :

Register | Disclaimer

   EN    FR    IT 

 









Legend :    VFR   Marginal VFR   IFR   Intensive IFR   Very Intensive IFR
Visi :
Ceiling :
>= 8 km
>= 3000ft
5 to 8 km
1000 to 3000 ft
1500m to 5 km
500 to 1000 ft
800 to 1500m
200 to 500 ft
< 800m
< 200 ft
Symbols :   Thunderstorms  Fog  Heavy snow  Heavy precipitations  Wind > 20 kt






- Airport Elevation : 729 ft
- IATA code : YTH


CYTH - Thompson

CURRENT METAR :
  • 072000Z 25012KT 15SM OVC016 M02/M04 A2951 RMK SC8 CIG RAG SLP012

EXPIRED METARs :
  • 071951Z 26012KT 15SM OVC016 M02/M04 A2951 RMK SC8 CIG RAG SLP010
  • 071900Z 24012G19KT 12SM -SHSN OVC012 M01/M04 A2950 RMK SC8 CVCTV CLD EMBD SLP007
  • 071844Z 23012KT 12SM -SHSN BKN012 OVC019 M01/M04 A2949 RMK SC5SC3 CVCTV CLD EMBD SLP006
  • 071800Z 25013KT 15SM -SHSN BKN016 OVC024 M01/M03 A2948 RMK SC6SC2 CIG RAG SLP001

TAF TAF CYTH
Valid from the 07 at 19:00 until the 08 at 07:00 UTC


071838Z 0719/0807 25012KT P6SM -SN BKN015 OVC025
TEMPO 0719/0721 2SM -SN BR BKN008 OVC015
FM072100 26010KT P6SM SCT015 OVC030
TEMPO 0721/0807 5SM -SN BR BKN015 OVC030
BECMG 0801/0803 VRB03KT RMK NXT FCST BY 080100Z



MET'MAP, your aeronautical weather chart ! - Copyright ORBIFLY December 2007 - Disclaimer

ORBIFLY MET'MAP TEAM :

Programming & Development : Alexandra Zaïnal
Concept & original design : Baudouin d'Aumeries
Assistance for programming : Marc-Olivier Méhu
Technical & hardware support : Manuel Goepfert

Contact : metmap@orbifly.com




SOURCES & CREDITS :

   NOAA       Earth
Advisory